Time;durP1;ratioP1;P1;durP2;ratioP2;P2;SDS_P1;SDS_P2;PMS_P1;PMS_P2;Temp;Humidity;BMP_temperature;BMP_pressure;BME280_temperature;BME280_humidity;BME280_pressure;Samples;Min_cycle;Max_cycle;Signal;HPM_P1;HPM_P2
2023/03/02 00:01:54;;;;;;;;;;;;;;;;;;4970744;28;114045;-68
2023/03/02 00:04:20;;;;;;;;;;;;;;;;;;4970322;28;129341;-68
2023/03/02 00:06:47;;;;;;;;;;;;;;;;;;4971201;28;130373;-68
2023/03/02 00:09:14;;;;;;;;;;;;;;;;;;4971373;28;114131;-69
2023/03/02 00:11:40;;;;;;;;;;;;;;;;;;4973549;28;129352;-68
2023/03/02 00:14:06;;;;;;;;;;;;;;;;;;4982292;28;129357;-68
2023/03/02 00:16:32;;;;;;;;;;;;;;;;;;4971985;28;128928;-67
2023/03/02 00:18:59;;;;;;;;;;;;;;;;;;4971823;28;129744;-68
2023/03/02 00:21:25;;;;;;;;;;;;;;;;;;4971493;28;114198;-68
2023/03/02 00:23:52;;;;;;;;;;;;;;;;;;4972706;28;130313;-68
2023/03/02 00:26:18;;;;;;;;;;;;;;;;;;4978141;28;130040;-67
2023/03/02 00:28:44;;;;;;;;;;;;;;;;;;4973087;28;113354;-68
2023/03/02 00:31:10;;;;;;;;;;;;;;;;;;4971792;28;129546;-67
2023/03/02 00:33:37;;;;;;;;;;;;;;;;;;4971146;28;130537;-68
2023/03/02 00:36:03;;;;;;;;;;;;;;;;;;4975422;28;113451;-68
2023/03/02 00:38:29;;;;;;;;;;;;;;;;;;4970977;28;129579;-68
2023/03/02 00:40:55;;;;;;;;;;;;;;;;;;4970512;28;114749;-68
2023/03/02 00:43:26;;;;;;;;;;;;;;;;;;4971947;28;129523;-68
2023/03/02 00:45:52;;;;;;;;;;;;;;;;;;4970852;28;130977;-68
2023/03/02 00:48:18;;;;;;;;;;;;;;;;;;4971873;28;112290;-67
2023/03/02 00:50:44;;;;;;;;;;;;;;;;;;4971119;28;129459;-68
2023/03/02 00:53:10;;;;;;;;;;;;;;;;;;4971525;28;130132;-68
2023/03/02 00:55:37;;;;;;;;;;;;;;;;;;4971581;28;114229;-68
2023/03/02 00:58:03;;;;;;;;;;;;;;;;;;4974168;28;129563;-68
2023/03/02 01:00:29;;;;;;;;;;;;;;;;;;4969770;28;112465;-68
2023/03/02 01:02:55;;;;;;;;;;;;;;;;;;4970274;28;129529;-68
2023/03/02 01:05:22;;;;;;;;;;;;;;;;;;4969070;28;128246;-68
2023/03/02 01:07:48;;;;;;;;;;;;;;;;;;4970838;28;113814;-68
2023/03/02 01:10:14;;;;;;;;;;;;;;;;;;4972379;28;129514;-68
2023/03/02 01:12:40;;;;;;;;;;;;;;;;;;4970284;28;130849;-68
2023/03/02 01:15:07;;;;;;;;;;;;;;;;;;4970937;28;113858;-68
2023/03/02 01:17:33;;;;;;;;;;;;;;;;;;4974528;28;129621;-68
2023/03/02 01:19:59;;;;;;;;;;;;;;;;;;4971466;28;114260;-68
2023/03/02 01:22:25;;;;;;;;;;;;;;;;;;4971402;28;129594;-68
2023/03/02 01:24:52;;;;;;;;;;;;;;;;;;4971254;28;130635;-68
2023/03/02 01:27:18;;;;;;;;;;;;;;;;;;4973024;28;113945;-68
2023/03/02 01:29:44;;;;;;;;;;;;;;;;;;4971365;28;128780;-68
2023/03/02 01:32:10;;;;;;;;;;;;;;;;;;4970932;28;130346;-68
2023/03/02 01:34:37;;;;;;;;;;;;;;;;;;4971045;28;114262;-68
2023/03/02 01:37:03;;;;;;;;;;;;;;;;;;4970831;28;130576;-68
2023/03/02 01:39:29;;;;;;;;;;;;;;;;;;4973698;28;128669;-68
2023/03/02 01:41:55;;;;;;;;;;;;;;;;;;4971513;28;129512;-68
2023/03/02 01:44:21;;;;;;;;;;;;;;;;;;4969045;28;130119;-68
2023/03/02 01:46:48;;;;;;;;;;;;;;;;;;4970890;28;113735;-68
2023/03/02 01:49:14;;;;;;;;;;;;;;;;;;4969905;28;129798;-68
2023/03/02 01:51:40;;;;;;;;;;;;;;;;;;4971341;28;130585;-68
2023/03/02 01:54:06;;;;;;;;;;;;;;;;;;4968915;28;114179;-68
2023/03/02 01:56:33;;;;;;;;;;;;;;;;;;4970954;28;128517;-68
2023/03/02 01:59:02;;;;;;;;;;;;;;;;;;4967756;28;130892;-68
2023/03/02 02:01:29;;;;;;;;;;;;;;;;;;4972717;28;114032;-68
2023/03/02 02:03:55;;;;;;;;;;;;;;;;;;4966514;28;130479;-68
2023/03/02 02:06:21;;;;;;;;;;;;;;;;;;4968101;28;114123;-68
2023/03/02 02:08:48;;;;;;;;;;;;;;;;;;4969457;28;129561;-68
2023/03/02 02:11:14;;;;;;;;;;;;;;;;;;4968105;28;130494;-67
2023/03/02 02:13:40;;;;;;;;;;;;;;;;;;4971316;28;113726;-68
2023/03/02 02:16:06;;;;;;;;;;;;;;;;;;4972377;28;130613;-67
2023/03/02 02:18:32;;;;;;;;;;;;;;;;;;4971284;28;130213;-67
2023/03/02 02:20:59;;;;;;;;;;;;;;;;;;4970817;28;114082;-67
2023/03/02 02:23:26;;;;;;;;;;;;;;;;;;4972520;28;129377;-68
2023/03/02 02:25:52;;;;;;;;;;;;;;;;;;4970803;28;114499;-67
2023/03/02 02:28:18;;;;;;;;;;;;;;;;;;4972771;28;129533;-67
2023/03/02 02:30:44;;;;;;;;;;;;;;;;;;4970171;28;130259;-67
2023/03/02 02:33:11;;;;;;;;;;;;;;;;;;4970528;28;113916;-68
2023/03/02 02:35:37;;;;;;;;;;;;;;;;;;4969714;28;130038;-67
2023/03/02 02:38:04;;;;;;;;;;;;;;;;;;4970023;28;131046;-67
2023/03/02 02:40:30;;;;;;;;;;;;;;;;;;4970925;28;112365;-68
2023/03/02 02:42:56;;;;;;;;;;;;;;;;;;4969849;28;129365;-68
2023/03/02 02:45:23;;;;;;;;;;;;;;;;;;4974566;28;130323;-68
2023/03/02 02:47:49;;;;;;;;;;;;;;;;;;4969362;28;129434;-68
2023/03/02 02:50:15;;;;;;;;;;;;;;;;;;4970106;28;130100;-68
2023/03/02 02:52:41;;;;;;;;;;;;;;;;;;4969234;28;112518;-68
2023/03/02 02:55:08;;;;;;;;;;;;;;;;;;4970674;28;130271;-68
2023/03/02 02:57:34;;;;;;;;;;;;;;;;;;4969555;28;130091;-68
2023/03/02 03:00:00;;;;;;;;;;;;;;;;;;4968260;28;113870;-68
2023/03/02 03:02:26;;;;;;;;;;;;;;;;;;4969175;28;128376;-68
2023/03/02 03:05:02;;;;;;;;;;;;;;;;;;4970764;28;130263;-68
2023/03/02 03:07:28;;;;;;;;;;;;;;;;;;4976606;28;114104;-68
2023/03/02 03:09:54;;;;;;;;;;;;;;;;;;4987367;28;130195;-68
2023/03/02 03:12:20;;;;;;;;;;;;;;;;;;4980579;28;114027;-68
2023/03/02 03:14:47;;;;;;;;;;;;;;;;;;4978320;28;130228;-69
2023/03/02 03:17:13;;;;;;;;;;;;;;;;;;4973495;28;130033;-68
2023/03/02 03:19:39;;;;;;;;;;;;;;;;;;4972631;28;114016;-68
2023/03/02 03:22:05;;;;;;;;;;;;;;;;;;4972822;28;129547;-68
2023/03/02 03:24:32;;;;;;;;;;;;;;;;;;4971905;28;130882;-68
2023/03/02 03:26:59;;;;;;;;;;;;;;;;;;4976373;28;114185;-68
2023/03/02 03:29:25;;;;;;;;;;;;;;;;;;4973015;28;129484;-68
2023/03/02 03:31:51;;;;;;;;;;;;;;;;;;4973168;28;114189;-68
2023/03/02 03:34:17;;;;;;;;;;;;;;;;;;4969261;28;130086;-68
2023/03/02 03:36:44;;;;;;;;;;;;;;;;;;4971919;28;131363;-68
2023/03/02 03:39:10;;;;;;;;;;;;;;;;;;4972363;28;114453;-67
2023/03/02 03:41:36;;;;;;;;;;;;;;;;;;4972550;28;129518;-67
2023/03/02 03:44:03;;;;;;;;;;;;;;;;;;4972110;28;130619;-68
2023/03/02 03:46:29;;;;;;;;;;;;;;;;;;4970939;28;112488;-68
2023/03/02 03:48:56;;;;;;;;;;;;;;;;;;4975351;28;129427;-68
2023/03/02 03:51:22;;;;;;;;;;;;;;;;;;4972454;28;114372;-68
2023/03/02 03:53:58;;;;;;;;;;;;;;;;;;4972954;28;129482;-68
2023/03/02 03:56:24;;;;;;;;;;;;;;;;;;4971962;28;129736;-68
2023/03/02 03:59:05;;;;;;;;;;;;;;;;;;4973137;28;114110;-68
2023/03/02 04:01:33;;;;;;;;;;;;;;;;;;4971883;28;129999;-68
2023/03/02 04:04:00;;;;;;;;;;;;;;;;;;4972113;28;130146;-68
2023/03/02 04:06:26;;;;;;;;;;;;;;;;;;4970995;28;113995;-68
2023/03/02 04:08:52;;;;;;;;;;;;;;;;;;4970128;28;129320;-68
2023/03/02 04:11:18;;;;;;;;;;;;;;;;;;4974864;28;130398;-68
2023/03/02 04:13:44;;;;;;;;;;;;;;;;;;4971315;28;129295;-68
2023/03/02 04:16:11;;;;;;;;;;;;;;;;;;4970911;28;130255;-68
2023/03/02 04:18:37;;;;;;;;;;;;;;;;;;4971217;28;112670;-67
2023/03/02 04:21:03;;;;;;;;;;;;;;;;;;4971598;28;126870;-67
2023/03/02 04:23:29;;;;;;;;;;;;;;;;;;4971674;28;130112;-68
2023/03/02 04:25:55;;;;;;;;;;;;;;;;;;4965871;28;114101;-67
2023/03/02 04:28:22;;;;;;;;;;;;;;;;;;4971412;28;130359;-68
2023/03/02 04:30:50;;;;;;;;;;;;;;;;;;4970922;28;130132;-68
2023/03/02 04:33:16;;;;;;;;;;;;;;;;;;4976183;28;113324;-68
2023/03/02 04:35:43;;;;;;;;;;;;;;;;;;4971175;28;130044;-68
2023/03/02 04:38:09;;;;;;;;;;;;;;;;;;4971427;28;114040;-68
2023/03/02 04:40:35;;;;;;;;;;;;;;;;;;4966196;28;129354;-68
2023/03/02 04:43:01;;;;;;;;;;;;;;;;;;4966705;28;129499;-68
2023/03/02 04:45:28;;;;;;;;;;;;;;;;;;4971646;28;110616;-67
2023/03/02 04:47:54;;;;;;;;;;;;;;;;;;4970833;28;129884;-68
2023/03/02 04:50:20;;;;;;;;;;;;;;;;;;4969602;28;130822;-68
2023/03/02 04:52:46;;;;;;;;;;;;;;;;;;4992632;28;114035;-68
2023/03/02 04:55:13;;;;;;;;;;;;;;;;;;4982918;28;129579;-67
2023/03/02 04:57:39;;;;;;;;;;;;;;;;;;4976818;28;112568;-67
2023/03/02 05:00:08;;;;;;;;;;;;;;;;;;4971564;28;129155;-68
2023/03/02 05:02:34;;;;;;;;;;;;;;;;;;4971581;28;130327;-68
2023/03/02 05:05:01;;;;;;;;;;;;;;;;;;4972193;28;114214;-67
2023/03/02 05:07:27;;;;;;;;;;;;;;;;;;4979874;28;129376;-67
2023/03/02 05:09:53;;;;;;;;;;;;;;;;;;4975296;28;131045;-67
2023/03/02 05:12:20;;;;;;;;;;;;;;;;;;4974911;28;113653;-67
2023/03/02 05:14:46;;;;;;;;;;;;;;;;;;4970164;28;130052;-67
2023/03/02 05:17:12;;;;;;;;;;;;;;;;;;4974727;28;130875;-67
2023/03/02 05:19:39;;;;;;;;;;;;;;;;;;4970475;28;129684;-68
2023/03/02 05:22:05;;;;;;;;;;;;;;;;;;4969168;28;130221;-67
2023/03/02 05:24:31;;;;;;;;;;;;;;;;;;4968918;28;114002;-69
2023/03/02 05:26:57;;;;;;;;;;;;;;;;;;4970781;28;130275;-67
2023/03/02 05:29:24;;;;;;;;;;;;;;;;;;4971013;28;130129;-68
2023/03/02 05:31:50;;;;;;;;;;;;;;;;;;4971156;28;113943;-67
2023/03/02 05:34:16;;;;;;;;;;;;;;;;;;4969584;28;128212;-67
2023/03/02 05:36:43;;;;;;;;;;;;;;;;;;4972646;28;130252;-68
2023/03/02 05:39:10;;;;;;;;;;;;;;;;;;4969413;28;130158;-67
2023/03/02 05:41:36;;;;;;;;;;;;;;;;;;4970085;28;126944;-68
2023/03/02 05:44:02;;;;;;;;;;;;;;;;;;4969880;28;112074;-67
2023/03/02 05:46:28;;;;;;;;;;;;;;;;;;4970394;28;129475;-68
2023/03/02 05:48:55;;;;;;;;;;;;;;;;;;4963473;28;129249;-68
2023/03/02 05:51:21;;;;;;;;;;;;;;;;;;4969275;28;114147;-68
2023/03/02 05:53:47;;;;;;;;;;;;;;;;;;4971151;28;128989;-67
2023/03/02 05:56:13;;;;;;;;;;;;;;;;;;4969427;28;130345;-68
2023/03/02 05:58:40;;;;;;;;;;;;;;;;;;4974081;28;114118;-68
2023/03/02 06:01:06;;;;;;;;;;;;;;;;;;4969290;28;129701;-68
2023/03/02 06:03:32;;;;;;;;;;;;;;;;;;4966092;28;111987;-68
2023/03/02 06:05:58;;;;;;;;;;;;;;;;;;4970838;28;129379;-68
2023/03/02 06:08:25;;;;;;;;;;;;;;;;;;4967991;28;128333;-68
2023/03/02 06:10:51;;;;;;;;;;;;;;;;;;4968369;28;112685;-68
2023/03/02 06:13:17;;;;;;;;;;;;;;;;;;4975094;28;129883;-68
2023/03/02 06:15:44;;;;;;;;;;;;;;;;;;4970818;28;130831;-68
2023/03/02 06:18:11;;;;;;;;;;;;;;;;;;4986881;28;115165;-68
2023/03/02 06:20:38;;;;;;;;;;;;;;;;;;4974045;28;129489;-68
2023/03/02 06:23:04;;;;;;;;;;;;;;;;;;4970979;28;114007;-68
2023/03/02 06:25:30;;;;;;;;;;;;;;;;;;4971370;28;129989;-67
2023/03/02 06:27:57;;;;;;;;;;;;;;;;;;4970611;28;131439;-68
2023/03/02 06:30:23;;;;;;;;;;;;;;;;;;4971761;28;113480;-67
2023/03/02 06:32:49;;;;;;;;;;;;;;;;;;4970591;28;129843;-68
2023/03/02 06:35:16;;;;;;;;;;;;;;;;;;4970321;28;130779;-68
2023/03/02 06:37:42;;;;;;;;;;;;;;;;;;4971454;28;114183;-67
2023/03/02 06:40:10;;;;;;;;;;;;;;;;;;4974891;28;129423;-67
2023/03/02 06:42:36;;;;;;;;;;;;;;;;;;4978363;28;132531;-67
2023/03/02 06:45:02;;;;;;;;;;;;;;;;;;4977633;28;129566;-68
2023/03/02 06:47:28;;;;;;;;;;;;;;;;;;4974357;28;130107;-69
2023/03/02 06:49:55;;;;;;;;;;;;;;;;;;4972929;28;114763;-67
2023/03/02 06:52:21;;;;;;;;;;;;;;;;;;4970034;28;130109;-69
2023/03/02 06:54:47;;;;;;;;;;;;;;;;;;4966651;28;130151;-67
2023/03/02 06:57:14;;;;;;;;;;;;;;;;;;4974252;28;114288;-67
2023/03/02 06:59:40;;;;;;;;;;;;;;;;;;4973526;28;129338;-67
2023/03/02 07:02:06;;;;;;;;;;;;;;;;;;4973513;28;130874;-67
2023/03/02 07:04:32;;;;;;;;;;;;;;;;;;4977684;28;112830;-68
2023/03/02 07:06:58;;;;;;;;;;;;;;;;;;4972283;28;128700;-67
2023/03/02 07:09:25;;;;;;;;;;;;;;;;;;4972390;28;112786;-67
2023/03/02 07:11:51;;;;;;;;;;;;;;;;;;4974028;28;129430;-67
2023/03/02 07:14:17;;;;;;;;;;;;;;;;;;4974120;28;128026;-67
2023/03/02 07:16:43;;;;;;;;;;;;;;;;;;4973668;28;113988;-67
2023/03/02 07:19:10;;;;;;;;;;;;;;;;;;4974310;28;130157;-68
2023/03/02 07:21:36;;;;;;;;;;;;;;;;;;4974050;28;130371;-67
2023/03/02 07:24:02;;;;;;;;;;;;;;;;;;4973847;28;114002;-67
2023/03/02 07:26:28;;;;;;;;;;;;;;;;;;4976157;28;128033;-67
2023/03/02 07:28:58;;;;;;;;;;;;;;;;;;4971945;28;114471;-67
2023/03/02 07:31:24;;;;;;;;;;;;;;;;;;4972188;28;128653;-67
2023/03/02 07:33:50;;;;;;;;;;;;;;;;;;4972967;28;127625;-67
2023/03/02 07:36:16;;;;;;;;;;;;;;;;;;4971316;28;113976;-67
2023/03/02 07:38:42;;;;;;;;;;;;;;;;;;4971658;28;128202;-67
2023/03/02 07:41:09;;;;;;;;;;;;;;;;;;4972099;28;131691;-67
2023/03/02 07:43:35;;;;;;;;;;;;;;;;;;4974105;28;113872;-68
2023/03/02 07:46:02;;;;;;;;;;;;;;;;;;4975528;28;129656;-68
2023/03/02 07:48:28;;;;;;;;;;;;;;;;;;4972719;28;113956;-68
2023/03/02 07:50:54;;;;;;;;;;;;;;;;;;4972826;28;129457;-67
2023/03/02 07:53:20;;;;;;;;;;;;;;;;;;4973247;28;129989;-67
2023/03/02 07:55:46;;;;;;;;;;;;;;;;;;4973972;28;114103;-68
2023/03/02 07:58:13;;;;;;;;;;;;;;;;;;4972626;28;130012;-67
2023/03/02 08:00:39;;;;;;;;;;;;;;;;;;4972752;28;131264;-67
2023/03/02 08:03:07;;;;;;;;;;;;;;;;;;4972955;28;114177;-68
2023/03/02 08:05:34;;;;;;;;;;;;;;;;;;4973385;28;129357;-68
2023/03/02 08:08:00;;;;;;;;;;;;;;;;;;4965396;28;130436;-69
2023/03/02 08:10:26;;;;;;;;;;;;;;;;;;4968559;28;127979;-68
2023/03/02 08:12:52;;;;;;;;;;;;;;;;;;4971908;28;130137;-68
2023/03/02 08:15:19;;;;;;;;;;;;;;;;;;4972210;28;114597;-68
2023/03/02 08:17:45;;;;;;;;;;;;;;;;;;4971810;28;129565;-68
2023/03/02 08:20:11;;;;;;;;;;;;;;;;;;4972966;28;130289;-68
2023/03/02 08:22:37;;;;;;;;;;;;;;;;;;4973940;28;114145;-68
2023/03/02 08:25:04;;;;;;;;;;;;;;;;;;4972622;28;128746;-69
2023/03/02 08:27:30;;;;;;;;;;;;;;;;;;4970739;28;130341;-68
2023/03/02 08:29:56;;;;;;;;;;;;;;;;;;4975029;28;112940;-69
2023/03/02 08:32:22;;;;;;;;;;;;;;;;;;4971439;28;130262;-68
2023/03/02 08:34:50;;;;;;;;;;;;;;;;;;4966723;28;113682;-68
2023/03/02 08:37:16;;;;;;;;;;;;;;;;;;4973156;28;128953;-68
2023/03/02 08:39:43;;;;;;;;;;;;;;;;;;4968584;28;130212;-68
2023/03/02 08:42:09;;;;;;;;;;;;;;;;;;4971799;28;114134;-68
2023/03/02 08:44:35;;;;;;;;;;;;;;;;;;4972575;28;129925;-69
2023/03/02 08:47:01;;;;;;;;;;;;;;;;;;4971805;28;129930;-69
2023/03/02 08:49:27;;;;;;;;;;;;;;;;;;4971202;28;113989;-66
2023/03/02 08:51:55;;;;;;;;;;;;;;;;;;4971673;28;129771;-69
2023/03/02 08:54:21;;;;;;;;;;;;;;;;;;4972224;28;114189;-69
2023/03/02 08:56:47;;;;;;;;;;;;;;;;;;4970893;28;130280;-69
2023/03/02 08:59:14;;;;;;;;;;;;;;;;;;4971153;28;130195;-66
2023/03/02 09:01:40;;;;;;;;;;;;;;;;;;4970732;28;112927;-69
2023/03/02 09:04:06;;;;;;;;;;;;;;;;;;4971519;28;130084;-69
2023/03/02 09:06:32;;;;;;;;;;;;;;;;;;4972224;28;130045;-69
2023/03/02 09:08:58;;;;;;;;;;;;;;;;;;4968846;28;113910;-66
2023/03/02 09:11:25;;;;;;;;;;;;;;;;;;4972921;28;129348;-69
2023/03/02 09:13:51;;;;;;;;;;;;;;;;;;4974542;28;130716;-67
2023/03/02 09:16:19;;;;;;;;;;;;;;;;;;4971188;28;130408;-69
2023/03/02 09:18:45;;;;;;;;;;;;;;;;;;4969850;28;130741;-69
2023/03/02 09:21:11;;;;;;;;;;;;;;;;;;4972327;28;114138;-68
2023/03/02 09:23:45;;;;;;;;;;;;;;;;;;5079219;27;86390;-63
2023/03/02 09:26:11;;;;;;;;;;;;;;;;;;5065360;27;113976;-63
2023/03/02 09:28:37;;;;;;;;;;;;;;;;;;5056574;27;118258;-64
2023/03/02 09:31:03;;;;;;;;;;;;;;;;;;5076813;27;118271;-64
2023/03/02 09:33:30;;;;;;;;;;;;;;;;;;5076215;27;112775;-63
2023/03/02 09:35:56;;;;;;;;;;;;;;;;;;5069005;27;117609;-63
2023/03/02 09:38:22;;;;;;;;;;;;;;;;;;5067596;27;118270;-63
2023/03/02 09:40:49;;;;;;;;;;;;;;;;;;5060214;27;113977;-64
2023/03/02 09:43:15;;;;;;;;;;;;;;;;;;5059098;27;117576;-64
2023/03/02 09:45:41;;;;;;;;;;;;;;;;;;5061569;27;113563;-63
2023/03/02 09:48:07;;;;;;;;;;;;;;;;;;5071080;27;117647;-64
2023/03/02 09:50:33;;;;;;;;;;;;;;;;;;5074084;27;116341;-64
2023/03/02 09:53:00;;;;;;;;;;;;;;;;;;5056182;27;113936;-64
2023/03/02 09:55:26;;;;;;;;;;;;;;;;;;5055300;27;117633;-64
2023/03/02 09:57:53;;;;;;;;;;;;;;;;;;5064489;27;118226;-64
2023/03/02 10:00:20;;;;;;;;;;;;;;;;;;5076360;27;112322;-61
2023/03/02 10:02:46;;;;;;;;;;;;;;;;;;5071423;27;117841;-63
2023/03/02 10:05:13;;;;;;;;;;;;;;;;;;5077014;27;118167;-62
2023/03/02 10:07:39;;;;;;;;;;;;;;;;;;5076379;27;118283;-61
2023/03/02 10:10:05;;;;;;;;;;;;;;;;;;5075724;27;118001;-61
2023/03/02 10:12:31;;;;;;;;;;;;;;;;;;5069138;27;113946;-64
2023/03/02 10:14:58;;;;;;;;;;;;;;;;;;5071518;27;116335;-65
2023/03/02 10:17:24;;;;;;;;;;;;;;;;;;5055027;27;118198;-63
2023/03/02 10:19:50;;;;;;;;;;;;;;;;;;5053947;27;114046;-63
2023/03/02 10:22:17;;;;;;;;;;;;;;;;;;5061668;27;116020;-63
2023/03/02 10:24:43;;;;;;;;;;;;;;;;;;5058735;27;116540;-65
2023/03/02 10:27:09;;;;;;;;;;;;;;;;;;5060646;27;113472;-65
2023/03/02 10:29:35;;;;;;;;;;;;;;;;;;5055531;27;118332;-65
2023/03/02 10:32:01;;;;;;;;;;;;;;;;;;5058220;27;113576;-65
2023/03/02 10:34:28;;;;;;;;;;;;;;;;;;5054813;27;117561;-65
2023/03/02 10:36:54;;;;;;;;;;;;;;;;;;5061626;27;118325;-66
2023/03/02 10:39:20;;;;;;;;;;;;;;;;;;5052093;27;113967;-65
2023/03/02 10:41:48;;;;;;;;;;;;;;;;;;5045758;27;117674;-65
2023/03/02 10:44:14;;;;;;;;;;;;;;;;;;5056840;27;118322;-65
2023/03/02 10:46:40;;;;;;;;;;;;;;;;;;5057115;27;114033;-65
2023/03/02 10:49:07;;;;;;;;;;;;;;;;;;5058847;27;117571;-65
2023/03/02 10:51:34;;;;;;;;;;;;;;;;;;5039108;27;114076;-65
2023/03/02 10:54:00;;;;;;;;;;;;;;;;;;5046355;27;116831;-65
2023/03/02 10:56:26;;;;;;;;;;;;;;;;;;5050428;27;117639;-65
2023/03/02 10:58:52;;;;;;;;;;;;;;;;;;5041307;27;113972;-66
2023/03/02 11:01:21;;;;;;;;;;;;;;;;;;5057274;27;117683;-65
2023/03/02 11:03:47;;;;;;;;;;;;;;;;;;5046399;27;116967;-66
2023/03/02 11:06:13;;;;;;;;;;;;;;;;;;5041120;27;113995;-66
2023/03/02 11:08:40;;;;;;;;;;;;;;;;;;5041243;27;117148;-63
2023/03/02 11:11:06;;;;;;;;;;;;;;;;;;5042470;27;117752;-66
2023/03/02 11:13:32;;;;;;;;;;;;;;;;;;5053177;27;120514;-63
2023/03/02 11:15:59;;;;;;;;;;;;;;;;;;5050657;27;118219;-65
2023/03/02 11:18:25;;;;;;;;;;;;;;;;;;5061805;27;112333;-65
2023/03/02 11:20:51;;;;;;;;;;;;;;;;;;5055116;27;117607;-65
2023/03/02 11:23:18;;;;;;;;;;;;;;;;;;5054659;27;118312;-63
2023/03/02 11:25:44;;;;;;;;;;;;;;;;;;5060136;27;114130;-63
2023/03/02 11:28:10;;;;;;;;;;;;;;;;;;5060633;27;117626;-63
2023/03/02 11:30:36;;;;;;;;;;;;;;;;;;5046617;27;118242;-64
2023/03/02 11:33:02;;;;;;;;;;;;;;;;;;5043954;28;86479;-63
2023/03/02 11:35:29;;;;;;;;;;;;;;;;;;5040708;27;118789;-63
2023/03/02 11:37:56;;;;;;;;;;;;;;;;;;5040345;27;113954;-63
2023/03/02 11:40:22;;;;;;;;;;;;;;;;;;5040889;27;116899;-63
2023/03/02 11:42:48;;;;;;;;;;;;;;;;;;5046791;27;116340;-63
2023/03/02 11:45:15;;;;;;;;;;;;;;;;;;5045272;27;113957;-63
2023/03/02 11:47:44;;;;;;;;;;;;;;;;;;5048663;27;117351;-67
2023/03/02 11:50:14;;;;;;;;;;;;;;;;;;5061002;27;118249;-63
2023/03/02 11:52:40;;;;;;;;;;;;;;;;;;5063849;27;114021;-63
2023/03/02 11:55:06;;;;;;;;;;;;;;;;;;5060894;27;117628;-63
2023/03/02 11:57:33;;;;;;;;;;;;;;;;;;5059165;27;114142;-63
2023/03/02 11:59:59;;;;;;;;;;;;;;;;;;5060141;27;118137;-64
2023/03/02 12:02:25;;;;;;;;;;;;;;;;;;5043066;27;118315;-63
2023/03/02 12:04:51;;;;;;;;;;;;;;;;;;5043554;27;114722;-63
2023/03/02 12:07:17;;;;;;;;;;;;;;;;;;5040563;28;116366;-64
2023/03/02 12:09:44;;;;;;;;;;;;;;;;;;5052382;27;118083;-63
2023/03/02 12:12:10;;;;;;;;;;;;;;;;;;5048747;27;112516;-63
2023/03/02 12:14:36;;;;;;;;;;;;;;;;;;5056916;27;117538;-64
2023/03/02 12:17:03;;;;;;;;;;;;;;;;;;5051066;27;114591;-64
2023/03/02 12:19:29;;;;;;;;;;;;;;;;;;5039106;28;116208;-63
2023/03/02 12:21:55;;;;;;;;;;;;;;;;;;5051307;27;118109;-63
2023/03/02 12:24:21;;;;;;;;;;;;;;;;;;5044440;27;114029;-64
2023/03/02 12:26:47;;;;;;;;;;;;;;;;;;5052975;27;115960;-64
2023/03/02 12:29:13;;;;;;;;;;;;;;;;;;5040198;28;118154;-66
2023/03/02 12:31:40;;;;;;;;;;;;;;;;;;5053098;27;113256;-65
2023/03/02 12:34:06;;;;;;;;;;;;;;;;;;5040006;27;117518;-64
2023/03/02 12:36:32;;;;;;;;;;;;;;;;;;5043094;28;118459;-63
2023/03/02 12:38:59;;;;;;;;;;;;;;;;;;5047502;27;116454;-64
2023/03/02 12:41:26;;;;;;;;;;;;;;;;;;5044181;27;117253;-64
2023/03/02 12:43:53;;;;;;;;;;;;;;;;;;5043408;27;114000;-65
2023/03/02 12:46:19;;;;;;;;;;;;;;;;;;5048164;27;118150;-65
2023/03/02 12:48:47;;;;;;;;;;;;;;;;;;5050499;27;118230;-63
2023/03/02 12:51:14;;;;;;;;;;;;;;;;;;5040657;27;113975;-65
2023/03/02 12:53:40;;;;;;;;;;;;;;;;;;5040539;27;118328;-63
2023/03/02 12:56:06;;;;;;;;;;;;;;;;;;5046375;27;118231;-64
2023/03/02 12:58:33;;;;;;;;;;;;;;;;;;5045595;27;114415;-64
2023/03/02 13:00:59;;;;;;;;;;;;;;;;;;5051307;27;117996;-64
2023/03/02 13:03:25;;;;;;;;;;;;;;;;;;5043221;27;113976;-63
2023/03/02 13:05:51;;;;;;;;;;;;;;;;;;5051965;27;117672;-64
2023/03/02 13:08:18;;;;;;;;;;;;;;;;;;5044646;27;118567;-65
2023/03/02 13:10:44;;;;;;;;;;;;;;;;;;5047966;27;114530;-66
2023/03/02 13:13:10;;;;;;;;;;;;;;;;;;5048279;27;118220;-64
2023/03/02 13:15:36;;;;;;;;;;;;;;;;;;5060026;27;118321;-64
2023/03/02 13:18:03;;;;;;;;;;;;;;;;;;5047319;27;114094;-64
2023/03/02 13:20:29;;;;;;;;;;;;;;;;;;5057301;27;117637;-64
2023/03/02 13:22:55;;;;;;;;;;;;;;;;;;5043230;27;114093;-66
2023/03/02 13:25:21;;;;;;;;;;;;;;;;;;5045783;27;117096;-66
2023/03/02 13:27:47;;;;;;;;;;;;;;;;;;5043755;27;119065;-66
2023/03/02 13:30:14;;;;;;;;;;;;;;;;;;5053245;27;113631;-66
2023/03/02 13:32:41;;;;;;;;;;;;;;;;;;5046863;27;118273;-65
2023/03/02 13:35:08;;;;;;;;;;;;;;;;;;5047180;27;119558;-66
2023/03/02 13:37:36;;;;;;;;;;;;;;;;;;5040480;27;114109;-65
2023/03/02 13:40:03;;;;;;;;;;;;;;;;;;5056104;27;119786;-65
2023/03/02 13:42:29;;;;;;;;;;;;;;;;;;5036277;28;113917;-65
2023/03/02 13:44:55;;;;;;;;;;;;;;;;;;5045550;27;118375;-66
2023/03/02 13:47:21;;;;;;;;;;;;;;;;;;5054439;27;119795;-65
2023/03/02 13:49:47;;;;;;;;;;;;;;;;;;5043412;27;114624;-65
2023/03/02 13:52:14;;;;;;;;;;;;;;;;;;5036648;28;118598;-66
2023/03/02 13:54:40;;;;;;;;;;;;;;;;;;5037727;28;119577;-65
2023/03/02 13:57:07;;;;;;;;;;;;;;;;;;5037679;27;112358;-66
2023/03/02 13:59:33;;;;;;;;;;;;;;;;;;5049360;27;119114;-66
2023/03/02 14:02:00;;;;;;;;;;;;;;;;;;5056250;27;120058;-66
2023/03/02 14:04:26;;;;;;;;;;;;;;;;;;5044802;27;119902;-66
2023/03/02 14:06:52;;;;;;;;;;;;;;;;;;5036402;28;118301;-65
2023/03/02 14:09:18;;;;;;;;;;;;;;;;;;5047505;27;113405;-65
2023/03/02 14:11:45;;;;;;;;;;;;;;;;;;5057152;27;116414;-65
2023/03/02 14:14:11;;;;;;;;;;;;;;;;;;5045500;27;119539;-65
2023/03/02 14:16:37;;;;;;;;;;;;;;;;;;5052489;27;114095;-65
2023/03/02 14:19:03;;;;;;;;;;;;;;;;;;5048038;27;118001;-65
2023/03/02 14:21:29;;;;;;;;;;;;;;;;;;5045262;27;119739;-65
2023/03/02 14:23:57;;;;;;;;;;;;;;;;;;5064485;27;113946;-65
2023/03/02 14:26:24;;;;;;;;;;;;;;;;;;5048437;27;120289;-65
2023/03/02 14:28:50;;;;;;;;;;;;;;;;;;5048127;27;113859;-65
2023/03/02 14:31:30;;;;;;;;;;;;;;;;;;5055965;27;117096;-65
2023/03/02 14:33:56;;;;;;;;;;;;;;;;;;5059285;27;119564;-66
2023/03/02 14:36:23;;;;;;;;;;;;;;;;;;5048124;27;114068;-65
2023/03/02 14:38:49;;;;;;;;;;;;;;;;;;5055094;27;118902;-63
2023/03/02 14:41:15;;;;;;;;;;;;;;;;;;5046145;27;120009;-66
2023/03/02 14:43:41;;;;;;;;;;;;;;;;;;5039346;27;112306;-64
2023/03/02 14:46:07;;;;;;;;;;;;;;;;;;5045257;27;118980;-65
2023/03/02 14:48:34;;;;;;;;;;;;;;;;;;5057798;27;114010;-67
2023/03/02 14:51:02;;;;;;;;;;;;;;;;;;5060550;27;119228;-65
2023/03/02 14:53:29;;;;;;;;;;;;;;;;;;5059906;27;119706;-63
2023/03/02 14:55:55;;;;;;;;;;;;;;;;;;5058585;27;114726;-63
2023/03/02 14:58:21;;;;;;;;;;;;;;;;;;5038945;27;119010;-64
2023/03/02 15:00:47;;;;;;;;;;;;;;;;;;5039978;27;119857;-63
2023/03/02 15:03:14;;;;;;;;;;;;;;;;;;5050609;27;114073;-66
2023/03/02 15:05:40;;;;;;;;;;;;;;;;;;5048008;27;119270;-64
2023/03/02 15:08:11;;;;;;;;;;;;;;;;;;5043580;28;118768;-63
2023/03/02 15:10:41;;;;;;;;;;;;;;;;;;5040041;27;117350;-64
2023/03/02 15:13:07;;;;;;;;;;;;;;;;;;5046024;27;119766;-64
2023/03/02 15:15:33;;;;;;;;;;;;;;;;;;5045708;27;113311;-64
2023/03/02 15:17:59;;;;;;;;;;;;;;;;;;5038772;27;119773;-64
2023/03/02 15:20:25;;;;;;;;;;;;;;;;;;5046534;27;119760;-64
2023/03/02 15:22:52;;;;;;;;;;;;;;;;;;5056278;27;113832;-64
2023/03/02 15:25:18;;;;;;;;;;;;;;;;;;5054629;27;119236;-63
2023/03/02 15:27:44;;;;;;;;;;;;;;;;;;5047535;27;119763;-63
2023/03/02 15:30:11;;;;;;;;;;;;;;;;;;5046497;27;112500;-63
2023/03/02 15:32:37;;;;;;;;;;;;;;;;;;5046820;27;118843;-64
2023/03/02 15:35:03;;;;;;;;;;;;;;;;;;5047370;27;113686;-64
2023/03/02 15:37:30;;;;;;;;;;;;;;;;;;5056341;27;119210;-64
2023/03/02 15:39:56;;;;;;;;;;;;;;;;;;5051189;27;120413;-64
2023/03/02 15:42:22;;;;;;;;;;;;;;;;;;5044567;27;113355;-64
2023/03/02 15:44:48;;;;;;;;;;;;;;;;;;5038095;27;118906;-63
2023/03/02 15:47:15;;;;;;;;;;;;;;;;;;5050784;27;117876;-63
2023/03/02 15:49:41;;;;;;;;;;;;;;;;;;5046452;27;114051;-64
2023/03/02 15:52:07;;;;;;;;;;;;;;;;;;5055590;27;119680;-64
2023/03/02 15:54:33;;;;;;;;;;;;;;;;;;5053533;27;112228;-63
2023/03/02 15:57:00;;;;;;;;;;;;;;;;;;5044616;27;119323;-63
2023/03/02 15:59:26;;;;;;;;;;;;;;;;;;5054605;27;119907;-63
2023/03/02 16:01:52;;;;;;;;;;;;;;;;;;5058380;27;114192;-63
2023/03/02 16:04:18;;;;;;;;;;;;;;;;;;5050178;27;118558;-63
2023/03/02 16:06:45;;;;;;;;;;;;;;;;;;5052701;27;120081;-64
2023/03/02 16:09:11;;;;;;;;;;;;;;;;;;5036842;27;112630;-62
2023/03/02 16:11:37;;;;;;;;;;;;;;;;;;5057992;27;118922;-62
2023/03/02 16:14:03;;;;;;;;;;;;;;;;;;5051526;27;114112;-63
2023/03/02 16:16:29;;;;;;;;;;;;;;;;;;5053051;27;119714;-62
2023/03/02 16:18:56;;;;;;;;;;;;;;;;;;5054124;27;119529;-63
2023/03/02 16:21:22;;;;;;;;;;;;;;;;;;5060145;27;113133;-64
2023/03/02 16:23:48;;;;;;;;;;;;;;;;;;5053644;27;118383;-64